createdAt,value
2019-01-20T00:00:07.283Z,1.93
2019-01-20T00:02:12.780Z,2.20
2019-01-20T00:04:18.287Z,2.67
2019-01-20T00:06:23.332Z,2.40
2019-01-20T00:08:28.434Z,1.93
2019-01-20T00:10:33.159Z,2.27
2019-01-20T00:12:39.228Z,2.17
2019-01-20T00:14:46.266Z,2.30
2019-01-20T00:16:52.384Z,2.10
2019-01-20T00:18:59.748Z,2.57
2019-01-20T00:21:05.981Z,3.03
2019-01-20T00:23:10.504Z,2.60
2019-01-20T00:25:15.975Z,2.17
2019-01-20T00:27:26.991Z,1.93
2019-01-20T00:29:31.992Z,2.10
2019-01-20T00:31:37.682Z,2.50
2019-01-20T00:33:44.478Z,2.07
2019-01-20T00:35:49.362Z,2.30
2019-01-20T00:37:54.158Z,1.87
2019-01-20T00:40:03.502Z,2.80
2019-01-20T00:42:08.439Z,2.23
2019-01-20T00:44:13.555Z,1.97
2019-01-20T00:46:19.172Z,1.80
2019-01-20T00:48:23.849Z,2.33
2019-01-20T00:50:32.026Z,2.60
2019-01-20T00:52:36.731Z,2.00
2019-01-20T00:54:41.908Z,2.33
2019-01-20T00:56:46.551Z,2.00
2019-01-20T00:58:51.890Z,1.57
2019-01-20T01:00:56.887Z,2.87
2019-01-20T01:03:01.783Z,2.17
2019-01-20T01:05:07.384Z,2.10
2019-01-20T01:07:11.877Z,2.17
2019-01-20T01:09:16.401Z,2.30
2019-01-20T01:11:21.186Z,2.13
2019-01-20T01:13:25.957Z,2.20
2019-01-20T01:15:30.845Z,1.87
2019-01-20T01:17:35.273Z,2.40
2019-01-20T01:19:39.598Z,1.80
2019-01-20T01:21:44.003Z,2.10
2019-01-20T01:23:51.284Z,2.27
2019-01-20T01:25:56.126Z,1.77
2019-01-20T01:28:00.596Z,2.33
2019-01-20T01:30:06.882Z,1.97
2019-01-20T01:32:11.228Z,3.00
2019-01-20T01:34:15.643Z,2.00
2019-01-20T01:36:20.108Z,2.20
2019-01-20T01:38:24.634Z,1.83
2019-01-20T01:40:29.106Z,2.07
2019-01-20T01:42:33.528Z,2.80
2019-01-20T01:44:38.133Z,2.20
2019-01-20T01:46:43.120Z,2.17
2019-01-20T01:48:47.477Z,2.23
2019-01-20T01:50:52.634Z,2.20
2019-01-20T01:52:57.855Z,1.73
2019-01-20T01:55:02.464Z,2.60
2019-01-20T01:57:06.981Z,1.97
2019-01-20T01:59:12.925Z,2.37
2019-01-20T02:01:17.732Z,2.60
2019-01-20T02:03:23.085Z,1.60
2019-01-20T02:05:27.540Z,1.80
2019-01-20T02:07:32.370Z,2.50
2019-01-20T02:09:36.868Z,2.40
2019-01-20T02:11:46.782Z,2.53
2019-01-20T02:13:49.393Z,2.30
2019-01-20T02:15:53.969Z,1.67
2019-01-20T02:17:59.220Z,3.07
2019-01-20T02:20:04.191Z,1.97
2019-01-20T02:22:08.717Z,2.20
2019-01-20T02:24:13.099Z,2.10
2019-01-20T02:26:17.887Z,1.60
2019-01-20T02:28:22.696Z,2.60
2019-01-20T02:30:28.695Z,2.57
2019-01-20T02:32:33.116Z,2.50
2019-01-20T02:34:40.260Z,2.73
2019-01-20T02:36:44.665Z,2.67
2019-01-20T02:38:49.018Z,2.17
2019-01-20T02:40:53.598Z,2.30
2019-01-20T02:42:58.037Z,2.43
2019-01-20T02:45:02.691Z,2.30
2019-01-20T02:47:07.598Z,2.30
2019-01-20T02:49:12.022Z,2.50
2019-01-20T02:51:16.684Z,2.43
2019-01-20T02:53:21.408Z,2.80
2019-01-20T02:55:25.912Z,2.30
2019-01-20T02:57:30.374Z,2.27
2019-01-20T02:59:34.751Z,2.63
2019-01-20T03:01:40.593Z,2.10
2019-01-20T03:03:47.492Z,3.10
2019-01-20T03:05:52.032Z,1.97
2019-01-20T03:07:56.564Z,2.73
2019-01-20T03:10:00.987Z,2.70
2019-01-20T03:12:05.815Z,2.20
2019-01-20T03:14:10.519Z,2.83
2019-01-20T03:16:14.922Z,2.30
2019-01-20T03:18:19.391Z,2.57
2019-01-20T03:20:24.508Z,2.33
2019-01-20T03:22:29.268Z,2.10
2019-01-20T03:24:34.084Z,1.73
2019-01-20T03:26:38.884Z,2.40
2019-01-20T03:28:43.303Z,2.20
2019-01-20T03:30:47.690Z,2.20
2019-01-20T03:32:52.112Z,1.70
2019-01-20T03:35:11.504Z,1.53
2019-01-20T03:37:18.379Z,2.17
2019-01-20T03:39:22.794Z,2.10
2019-01-20T03:41:42.091Z,2.30
2019-01-20T03:44:00.656Z,1.90
2019-01-20T03:46:09.713Z,2.30
2019-01-20T03:48:24.974Z,1.90
2019-01-20T03:50:33.120Z,2.40
2019-01-20T03:52:39.502Z,1.90
2019-01-20T03:54:56.927Z,1.77
2019-01-20T03:57:04.341Z,1.50
2019-01-20T03:59:21.942Z,2.10
2019-01-20T04:12:36.091Z,1.67
2019-01-20T04:12:46.879Z,1.30
2019-01-20T04:15:52.412Z,1.40
2019-01-20T04:17:55.972Z,1.43
2019-01-20T04:18:19.522Z,1.60
2019-01-20T04:20:00.827Z,2.30
2019-01-20T04:22:05.259Z,1.57
2019-01-20T04:24:10.027Z,2.50
2019-01-20T04:26:14.545Z,1.43
2019-01-20T04:28:18.986Z,1.87
2019-01-20T04:30:23.816Z,2.00
2019-01-20T04:32:28.765Z,2.07
2019-01-20T04:34:33.490Z,1.83
2019-01-20T04:36:38.207Z,1.67
2019-01-20T04:38:44.475Z,1.57
2019-01-20T04:40:48.640Z,2.20
2019-01-20T04:42:53.089Z,2.30
2019-01-20T04:44:57.570Z,1.80
2019-01-20T04:47:04.964Z,1.93
2019-01-20T04:49:09.475Z,2.50
2019-01-20T04:51:13.865Z,1.70
2019-01-20T04:53:18.811Z,2.23
2019-01-20T04:55:23.371Z,2.20
2019-01-20T04:57:28.213Z,2.13
2019-01-20T04:59:32.734Z,1.70
2019-01-20T05:01:37.917Z,2.63
2019-01-20T05:03:42.715Z,2.43
2019-01-20T05:05:48.127Z,2.37
2019-01-20T05:07:52.532Z,1.90
2019-01-20T05:09:56.997Z,2.10
2019-01-20T05:12:01.326Z,2.03
2019-01-20T05:14:05.807Z,1.77
2019-01-20T05:16:10.534Z,2.47
2019-01-20T05:18:15.007Z,2.67
2019-01-20T05:20:21.186Z,2.47
2019-01-20T05:22:25.692Z,1.80
2019-01-20T05:24:30.142Z,2.43
2019-01-20T05:26:35.109Z,1.60
2019-01-20T05:28:39.748Z,2.50
2019-01-20T05:30:44.135Z,2.40
2019-01-20T05:32:49.102Z,2.50
2019-01-20T05:34:53.522Z,2.10
2019-01-20T05:36:57.888Z,2.20
2019-01-20T05:39:02.455Z,2.00
2019-01-20T05:41:06.873Z,2.30
2019-01-20T05:43:14.787Z,3.40
2019-01-20T05:45:23.698Z,2.23
2019-01-20T05:47:28.119Z,2.43
2019-01-20T05:49:33.052Z,2.90
2019-01-20T05:51:37.628Z,2.20
2019-01-20T05:53:42.109Z,3.60
2019-01-20T05:55:46.537Z,2.53
2019-01-20T05:57:51.699Z,2.90
2019-01-20T05:59:56.305Z,2.20
2019-01-20T06:02:01.800Z,2.03
2019-01-20T06:04:06.224Z,2.37
2019-01-20T06:06:12.563Z,2.87
2019-01-20T06:08:20.051Z,1.70
2019-01-20T06:10:24.731Z,2.30
2019-01-20T06:12:29.207Z,2.37
2019-01-20T06:14:33.641Z,2.93
2019-01-20T06:16:38.213Z,2.70
2019-01-20T06:18:42.622Z,2.33
2019-01-20T06:20:47.424Z,2.60
2019-01-20T06:22:53.344Z,2.80
2019-01-20T06:24:57.918Z,2.20
2019-01-20T06:27:02.325Z,2.57
2019-01-20T06:29:06.925Z,3.10
2019-01-20T06:31:11.429Z,2.30
2019-01-20T06:33:16.191Z,2.63
2019-01-20T06:35:20.590Z,2.50
2019-01-20T06:37:24.983Z,3.23
2019-01-20T06:39:30.008Z,3.50
2019-01-20T06:41:34.395Z,2.13
2019-01-20T06:43:38.904Z,2.90
2019-01-20T06:45:43.393Z,3.13
2019-01-20T06:47:47.834Z,3.60
2019-01-20T06:49:52.852Z,2.77
2019-01-20T06:51:57.459Z,3.37
2019-01-20T06:54:02.320Z,2.93
2019-01-20T06:56:06.694Z,3.20
2019-01-20T06:58:11.159Z,3.40
2019-01-20T07:00:23.797Z,3.00
2019-01-20T07:02:32.132Z,2.47
2019-01-20T07:04:36.930Z,2.60
2019-01-20T07:06:41.387Z,2.90
2019-01-20T07:08:46.612Z,2.20
2019-01-20T07:10:51.445Z,2.60
2019-01-20T07:12:55.804Z,3.90
2019-01-20T07:15:00.847Z,2.50
2019-01-20T07:17:05.667Z,2.93
2019-01-20T07:19:10.158Z,3.80
2019-01-20T07:21:14.588Z,2.90
2019-01-20T07:23:19.400Z,2.90
2019-01-20T07:25:23.868Z,2.80
2019-01-20T07:27:28.288Z,2.93
2019-01-20T07:29:32.671Z,3.37
2019-01-20T07:31:37.763Z,3.20
2019-01-20T07:33:42.225Z,3.30
2019-01-20T07:35:49.132Z,2.67
2019-01-20T07:37:53.934Z,3.03
2019-01-20T07:39:59.063Z,3.00
2019-01-20T07:42:03.564Z,3.33
2019-01-20T07:44:11.170Z,3.20
2019-01-20T07:46:16.716Z,2.90
2019-01-20T07:48:21.606Z,2.60
2019-01-20T07:50:31.147Z,3.77
2019-01-20T07:52:35.592Z,3.10
2019-01-20T07:54:40.106Z,3.17
2019-01-20T07:56:44.641Z,2.80
2019-01-20T07:58:49.430Z,2.90
2019-01-20T08:00:53.892Z,4.13
2019-01-20T08:02:59.912Z,3.43
2019-01-20T08:05:04.825Z,3.03
2019-01-20T08:07:11.805Z,3.00
2019-01-20T08:09:17.687Z,3.20
2019-01-20T08:11:22.316Z,2.70
2019-01-20T08:13:27.319Z,2.93
2019-01-20T08:15:32.093Z,3.60
2019-01-20T08:17:36.489Z,4.10
2019-01-20T08:19:41.110Z,3.60
2019-01-20T08:21:45.924Z,3.43
2019-01-20T08:23:50.379Z,4.00
2019-01-20T08:25:55.251Z,4.07
2019-01-20T08:28:00.032Z,3.50
2019-01-20T08:30:06.214Z,3.60
2019-01-20T08:32:11.455Z,3.43
2019-01-20T08:34:16.251Z,3.80
2019-01-20T08:36:20.782Z,4.00
2019-01-20T08:38:25.627Z,3.57
2019-01-20T08:40:31.959Z,3.13
2019-01-20T08:42:36.669Z,4.23
2019-01-20T08:44:44.001Z,3.20
2019-01-20T08:47:12.223Z,3.67
2019-01-20T08:49:17.081Z,3.70
2019-01-20T08:51:22.513Z,3.63
2019-01-20T08:53:28.389Z,3.77
2019-01-20T08:55:33.387Z,3.73
2019-01-20T08:57:37.785Z,3.80
2019-01-20T08:59:42.843Z,3.90
2019-01-20T09:01:47.422Z,3.90
2019-01-20T09:03:52.206Z,4.30
2019-01-20T09:05:56.635Z,4.50
2019-01-20T09:08:01.044Z,4.90
2019-01-20T09:10:11.973Z,4.27
2019-01-20T09:12:16.825Z,3.87
2019-01-20T09:14:22.608Z,3.70
2019-01-20T09:16:27.035Z,4.10
2019-01-20T09:18:34.901Z,4.57
2019-01-20T09:20:39.330Z,4.83
2019-01-20T09:22:43.784Z,4.93
2019-01-20T09:24:50.916Z,4.60
2019-01-20T09:26:57.707Z,4.87
2019-01-20T09:29:03.089Z,5.27
2019-01-20T09:31:07.951Z,5.40
2019-01-20T09:33:13.038Z,4.27
2019-01-20T09:35:18.197Z,4.30
2019-01-20T09:37:24.929Z,3.93
2019-01-20T09:39:30.364Z,4.33
2019-01-20T09:41:35.275Z,4.33
2019-01-20T09:43:46.791Z,4.90
2019-01-20T09:45:46.306Z,4.37
2019-01-20T09:47:54.106Z,4.17
2019-01-20T09:49:58.671Z,5.00
2019-01-20T09:52:04.370Z,4.60
2019-01-20T09:54:08.778Z,4.40
2019-01-20T09:56:13.430Z,4.93
2019-01-20T09:58:20.672Z,5.37
2019-01-20T10:00:27.472Z,3.87
2019-01-20T10:02:32.111Z,4.60
2019-01-20T10:04:37.095Z,4.50
2019-01-20T10:06:41.991Z,4.70
2019-01-20T10:08:46.956Z,3.87
2019-01-20T10:10:52.417Z,4.30
2019-01-20T10:12:56.846Z,4.40
2019-01-20T10:15:01.641Z,4.10
2019-01-20T10:17:06.495Z,5.50
2019-01-20T10:19:11.220Z,4.73
2019-01-20T10:21:16.050Z,4.43
2019-01-20T10:23:20.973Z,5.33
2019-01-20T10:25:25.571Z,4.60
2019-01-20T10:27:31.329Z,4.60
2019-01-20T10:29:36.522Z,5.90
2019-01-20T10:31:41.208Z,5.07
2019-01-20T10:33:45.750Z,5.10
2019-01-20T10:35:53.490Z,4.40
2019-01-20T10:37:59.786Z,4.90
2019-01-20T10:40:05.310Z,5.40
2019-01-20T10:42:09.889Z,5.10
2019-01-20T10:44:18.684Z,4.97
2019-01-20T10:46:26.467Z,4.50
2019-01-20T10:48:31.090Z,4.50
2019-01-20T10:50:35.615Z,5.60
2019-01-20T10:52:40.092Z,5.73
2019-01-20T10:54:46.810Z,5.63
2019-01-20T10:56:53.182Z,5.17
2019-01-20T10:58:57.942Z,5.10
2019-01-20T11:01:03.188Z,4.53
2019-01-20T11:03:09.876Z,4.57
2019-01-20T11:05:15.551Z,4.20
2019-01-20T11:07:24.567Z,5.60
2019-01-20T11:09:30.466Z,5.00
2019-01-20T11:11:37.692Z,5.77
2019-01-20T11:13:43.608Z,6.07
2019-01-20T11:15:49.317Z,5.83
2019-01-20T11:17:56.663Z,5.10
2019-01-20T11:20:03.741Z,5.50
2019-01-20T11:22:09.720Z,5.77
2019-01-20T11:24:15.612Z,7.10
2019-01-20T11:26:22.355Z,5.17
2019-01-20T11:28:27.505Z,5.37
2019-01-20T11:30:32.791Z,4.90
2019-01-20T11:32:42.485Z,4.87
2019-01-20T11:34:45.379Z,5.30
2019-01-20T11:36:50.804Z,5.40
2019-01-20T11:38:55.436Z,5.77
2019-01-20T11:41:00.344Z,4.97
2019-01-20T11:43:07.642Z,5.00
2019-01-20T11:45:19.072Z,4.53
2019-01-20T11:47:26.515Z,5.70
2019-01-20T11:49:31.438Z,4.20
2019-01-20T11:51:37.634Z,5.27
2019-01-20T11:53:43.211Z,4.20
2019-01-20T11:55:49.045Z,4.83
2019-01-20T11:57:54.758Z,4.60
2019-01-20T12:00:02.575Z,5.00
2019-01-20T12:02:10.860Z,5.50
2019-01-20T12:04:17.196Z,4.50
2019-01-20T12:06:23.905Z,4.87
2019-01-20T12:08:30.664Z,5.33
2019-01-20T12:10:37.174Z,5.63
2019-01-20T12:12:47.012Z,4.50
2019-01-20T12:14:52.804Z,5.70
2019-01-20T12:16:58.688Z,5.70
2019-01-20T12:19:05.253Z,5.30
2019-01-20T12:21:11.063Z,5.70
2019-01-20T12:23:18.350Z,5.20
2019-01-20T12:25:26.319Z,5.83
2019-01-20T12:27:31.934Z,5.30
2019-01-20T12:29:37.791Z,5.73
2019-01-20T12:31:45.035Z,6.37
2019-01-20T12:33:51.280Z,5.47
2019-01-20T12:36:00.545Z,6.00
2019-01-20T12:38:07.416Z,5.30
2019-01-20T12:40:20.797Z,4.63
2019-01-20T12:42:30.124Z,5.17
2019-01-20T12:44:35.818Z,5.13
2019-01-20T12:46:41.813Z,5.73
2019-01-20T12:48:48.236Z,4.93
2019-01-20T12:50:54.549Z,6.43
2019-01-20T12:53:01.390Z,6.60
2019-01-20T12:55:08.265Z,5.60
2019-01-20T12:57:13.857Z,6.70
2019-01-20T12:59:20.439Z,5.00
2019-01-20T13:01:25.881Z,4.90
2019-01-20T13:03:30.887Z,4.67
2019-01-20T13:05:35.442Z,4.83
2019-01-20T13:07:43.388Z,5.43
2019-01-20T13:09:53.697Z,4.67
2019-01-20T13:12:00.592Z,5.20
2019-01-20T13:14:07.046Z,4.50
2019-01-20T13:16:12.965Z,4.80
2019-01-20T13:18:22.258Z,3.90
2019-01-20T13:20:29.332Z,4.80
2019-01-20T13:22:39.608Z,4.53
2019-01-20T13:24:47.218Z,4.23
2019-01-20T13:26:54.790Z,3.90
2019-01-20T13:29:05.471Z,4.77
2019-01-20T13:31:11.768Z,5.00
2019-01-20T13:33:18.077Z,5.27
2019-01-20T13:35:24.862Z,4.30
2019-01-20T13:37:33.561Z,4.93
2019-01-20T13:39:39.632Z,4.87
2019-01-20T13:41:50.350Z,4.20
2019-01-20T13:43:56.332Z,4.30
2019-01-20T13:46:01.194Z,5.20
2019-01-20T13:48:06.647Z,4.87
2019-01-20T13:50:14.410Z,4.20
2019-01-20T13:52:20.551Z,4.53
2019-01-20T13:54:27.108Z,4.30
2019-01-20T13:56:32.380Z,3.63
2019-01-20T13:58:37.648Z,4.80
2019-01-20T14:00:43.479Z,3.83
2019-01-20T14:02:49.995Z,3.50
2019-01-20T14:04:56.724Z,3.53
2019-01-20T14:07:02.164Z,5.20
2019-01-20T14:09:09.862Z,4.20
2019-01-20T14:11:16.723Z,3.77
2019-01-20T14:13:22.991Z,3.70
2019-01-20T14:15:29.762Z,4.07
2019-01-20T14:17:36.161Z,4.50
2019-01-20T14:19:41.857Z,3.87
2019-01-20T14:21:46.947Z,4.80
2019-01-20T14:23:51.966Z,3.50
2019-01-20T14:25:57.874Z,3.60
2019-01-20T14:28:02.665Z,3.40
2019-01-20T14:30:10.004Z,4.07
2019-01-20T14:32:14.547Z,3.63
2019-01-20T14:34:19.257Z,3.73
2019-01-20T14:36:23.651Z,3.70
2019-01-20T14:38:28.884Z,4.17
2019-01-20T14:40:33.714Z,5.27
2019-01-20T14:42:38.692Z,3.40
2019-01-20T14:44:43.620Z,4.03
2019-01-20T14:46:48.150Z,4.17
2019-01-20T14:48:55.778Z,4.17
2019-01-20T14:51:01.455Z,4.33
2019-01-20T14:53:06.743Z,4.20
2019-01-20T14:55:11.462Z,4.70
2019-01-20T14:57:16.196Z,5.07
2019-01-20T14:59:23.166Z,3.80
2019-01-20T15:01:27.586Z,4.97
2019-01-20T15:03:32.133Z,4.30
2019-01-20T15:05:40.121Z,4.67
2019-01-20T15:07:47.449Z,4.20
2019-01-20T15:09:52.687Z,5.77
2019-01-20T15:11:58.717Z,4.30
2019-01-20T15:14:03.596Z,5.03
2019-01-20T15:16:10.791Z,4.20
2019-01-20T15:18:16.073Z,4.37
2019-01-20T15:20:20.878Z,4.00
2019-01-20T15:22:25.410Z,4.80
2019-01-20T15:24:31.285Z,4.07
2019-01-20T15:26:36.146Z,4.40
2019-01-20T15:28:40.617Z,4.47
2019-01-20T15:30:48.008Z,3.73
2019-01-20T15:32:52.898Z,4.50
2019-01-20T15:34:57.665Z,4.77
2019-01-20T15:37:02.385Z,4.10
2019-01-20T15:39:08.804Z,4.07
2019-01-20T15:41:13.546Z,3.53
2019-01-20T15:43:18.106Z,4.57
2019-01-20T15:45:22.875Z,4.20
2019-01-20T15:47:29.369Z,4.27
2019-01-20T15:49:33.893Z,4.70
2019-01-20T15:51:38.465Z,4.80
2019-01-20T15:53:44.571Z,4.40
2019-01-20T15:55:49.561Z,4.10
2019-01-20T15:57:54.155Z,4.10
2019-01-20T15:59:58.808Z,4.87
2019-01-20T16:02:03.450Z,4.37
2019-01-20T16:04:11.204Z,3.83
2019-01-20T16:06:18.238Z,3.63
2019-01-20T16:08:22.891Z,4.10
2019-01-20T16:10:28.031Z,4.07
2019-01-20T16:12:32.933Z,4.57
2019-01-20T16:14:37.603Z,4.00
2019-01-20T16:16:42.833Z,4.53
2019-01-20T16:18:48.525Z,4.70
2019-01-20T16:20:53.359Z,4.23
2019-01-20T16:22:58.434Z,5.33
2019-01-20T16:25:04.189Z,4.87
2019-01-20T16:27:09.881Z,6.40
2019-01-20T16:29:14.685Z,4.33
2019-01-20T16:31:19.568Z,4.40
2019-01-20T16:33:24.992Z,5.60
2019-01-20T16:35:30.124Z,5.00
2019-01-20T16:37:47.198Z,5.17
2019-01-20T16:39:52.034Z,4.57
2019-01-20T16:41:57.711Z,5.53
2019-01-20T16:44:02.221Z,4.70
2019-01-20T16:46:07.033Z,5.57
2019-01-20T16:48:15.669Z,4.77
2019-01-20T16:50:25.079Z,5.60
2019-01-20T16:52:29.749Z,5.00
2019-01-20T16:54:34.233Z,4.83
2019-01-20T16:56:42.383Z,5.57
2019-01-20T16:58:51.381Z,6.00
2019-01-20T17:00:55.941Z,4.97
2019-01-20T17:03:01.795Z,5.17
2019-01-20T17:05:12.873Z,5.77
2019-01-20T17:07:24.075Z,4.80
2019-01-20T17:09:29.589Z,4.63
2019-01-20T17:11:35.554Z,4.73
2019-01-20T17:13:40.209Z,5.20
2019-01-20T17:15:48.104Z,5.37
2019-01-20T17:17:53.232Z,6.03
2019-01-20T17:20:00.939Z,5.90
2019-01-20T17:22:07.728Z,5.23
2019-01-20T17:24:13.745Z,4.97
2019-01-20T17:26:18.409Z,5.57
2019-01-20T17:28:23.853Z,4.70
2019-01-20T17:30:30.922Z,6.10
2019-01-20T17:32:36.887Z,5.60
2019-01-20T17:34:41.562Z,6.30
2019-01-20T17:36:47.066Z,5.33
2019-01-20T17:38:53.002Z,5.70
2019-01-20T17:40:59.123Z,5.23
2019-01-20T17:43:04.668Z,6.70
2019-01-20T17:45:11.924Z,5.67
2019-01-20T17:47:16.617Z,6.93
2019-01-20T17:49:22.862Z,6.37
2019-01-20T17:51:28.517Z,6.77
2019-01-20T17:53:34.495Z,6.13
2019-01-20T17:55:40.375Z,6.80
2019-01-20T17:57:46.184Z,6.73
2019-01-20T17:59:52.688Z,6.37
2019-01-20T18:01:59.764Z,5.80
2019-01-20T18:04:05.650Z,7.40
2019-01-20T18:06:11.541Z,5.97
2019-01-20T18:08:19.012Z,7.20
2019-01-20T18:10:24.710Z,6.93
2019-01-20T18:12:29.931Z,7.03
2019-01-20T18:14:36.790Z,6.73
2019-01-20T18:16:41.906Z,7.00
2019-01-20T18:18:47.162Z,6.50
2019-01-20T18:20:53.418Z,7.97
2019-01-20T18:22:59.778Z,7.33
2019-01-20T18:25:05.961Z,6.80
2019-01-20T18:27:10.760Z,7.00
2019-01-20T18:29:16.855Z,7.33
2019-01-20T18:31:21.965Z,7.43
2019-01-20T18:33:27.786Z,7.07
2019-01-20T18:35:38.248Z,6.50
2019-01-20T18:37:44.399Z,7.67
2019-01-20T18:39:50.316Z,6.00
2019-01-20T18:41:56.209Z,6.60
2019-01-20T18:44:02.351Z,6.50
2019-01-20T18:46:12.931Z,6.23
2019-01-20T18:48:20.793Z,6.17
2019-01-20T18:50:32.640Z,6.30
2019-01-20T18:52:39.320Z,7.20
2019-01-20T18:54:46.111Z,7.37
2019-01-20T18:56:53.137Z,6.73
2019-01-20T18:58:59.631Z,6.40
2019-01-20T19:01:05.585Z,6.87
2019-01-20T19:03:12.159Z,5.57
2019-01-20T19:05:18.318Z,6.40
2019-01-20T19:07:30.188Z,6.50
2019-01-20T19:09:36.116Z,5.83
2019-01-20T19:11:41.739Z,5.97
2019-01-20T19:13:47.408Z,6.63
2019-01-20T19:15:53.157Z,6.10
2019-01-20T19:18:06.150Z,6.13
2019-01-20T19:20:15.330Z,6.60
2019-01-20T19:22:26.066Z,6.37
2019-01-20T19:24:31.342Z,6.87
2019-01-20T19:26:41.716Z,5.07
2019-01-20T19:28:47.161Z,6.20
2019-01-20T19:30:56.845Z,6.00
2019-01-20T19:33:04.022Z,5.97
2019-01-20T19:35:12.125Z,5.93
2019-01-20T19:37:18.256Z,5.77
2019-01-20T19:39:24.925Z,6.73
2019-01-20T19:41:30.692Z,6.27
2019-01-20T19:43:40.981Z,5.53
2019-01-20T19:45:49.962Z,6.43
2019-01-20T19:47:56.408Z,6.43
2019-01-20T19:50:05.170Z,6.60
2019-01-20T19:52:13.975Z,5.90
2019-01-20T19:54:21.106Z,5.90
2019-01-20T19:56:31.014Z,6.20
2019-01-20T19:58:37.938Z,6.07
2019-01-20T20:00:45.670Z,5.07
2019-01-20T20:02:52.772Z,5.63
2019-01-20T20:05:01.966Z,5.83
2019-01-20T20:07:11.156Z,6.17
2019-01-20T20:09:18.196Z,6.17
2019-01-20T20:11:26.619Z,5.83
2019-01-20T20:13:33.759Z,6.17
2019-01-20T20:15:41.235Z,6.23
2019-01-20T20:17:50.971Z,5.60
2019-01-20T20:19:58.752Z,7.20
2019-01-20T20:22:11.572Z,6.27
2019-01-20T20:24:25.599Z,6.50
2019-01-20T20:26:34.312Z,5.00
2019-01-20T20:28:47.258Z,5.83
2019-01-20T20:30:54.141Z,6.10
2019-01-20T20:33:01.235Z,5.30
2019-01-20T20:35:09.437Z,5.07
2019-01-20T20:37:17.167Z,5.73
2019-01-20T20:39:26.131Z,6.50
2019-01-20T20:41:41.109Z,6.57
2019-01-20T20:43:48.132Z,7.23
2019-01-20T20:45:53.486Z,7.67
2019-01-20T20:48:00.921Z,7.10
2019-01-20T20:50:09.592Z,6.10
2019-01-20T20:52:17.516Z,6.13
2019-01-20T20:54:24.549Z,7.43
2019-01-20T20:56:31.644Z,6.80
2019-01-20T20:58:39.265Z,7.50
2019-01-20T21:00:49.709Z,6.70
2019-01-20T21:02:57.180Z,6.07
2019-01-20T21:05:03.620Z,8.07
2019-01-20T21:07:10.855Z,8.17
2019-01-20T21:09:18.096Z,8.13
2019-01-20T21:11:24.044Z,8.90
2019-01-20T21:13:31.280Z,8.10
2019-01-20T21:15:37.832Z,8.40
2019-01-20T21:17:48.311Z,7.70
2019-01-20T21:19:57.204Z,7.93
2019-01-20T21:22:04.989Z,7.50
2019-01-20T21:24:10.897Z,8.47
2019-01-20T21:26:18.856Z,7.97
2019-01-20T21:28:26.096Z,7.53
2019-01-20T21:30:31.684Z,9.20
2019-01-20T21:32:38.210Z,8.03
2019-01-20T21:34:43.559Z,6.77
2019-01-20T21:36:49.941Z,9.07
2019-01-20T21:38:55.547Z,8.07
2019-01-20T21:41:03.099Z,9.03
2019-01-20T21:43:08.614Z,8.63
2019-01-20T21:45:16.935Z,8.50
2019-01-20T21:47:24.180Z,7.47
2019-01-20T21:49:32.629Z,9.20
2019-01-20T21:51:38.478Z,7.90
2019-01-20T21:53:44.828Z,8.10
2019-01-20T21:55:52.177Z,9.40
2019-01-20T21:58:00.282Z,8.10
2019-01-20T22:00:09.909Z,9.13
2019-01-20T22:02:17.226Z,8.30
2019-01-20T22:04:25.646Z,8.70
2019-01-20T22:06:47.747Z,8.70
2019-01-20T22:08:54.324Z,8.90
2019-01-20T22:11:01.066Z,9.33
2019-01-20T22:13:11.839Z,8.43
2019-01-20T22:15:18.746Z,8.93
2019-01-20T22:17:35.102Z,8.10
2019-01-20T22:19:41.660Z,8.70
2019-01-20T22:21:51.473Z,7.50
2019-01-20T22:23:57.847Z,8.93
2019-01-20T22:26:05.830Z,8.20
2019-01-20T22:28:12.783Z,10.30
2019-01-20T22:30:23.426Z,7.70
2019-01-20T22:32:30.892Z,8.43
2019-01-20T22:34:39.777Z,7.60
2019-01-20T22:36:47.184Z,8.47
2019-01-20T22:38:56.381Z,9.03
2019-01-20T22:41:02.212Z,9.30
2019-01-20T22:43:08.346Z,8.33
2019-01-20T22:45:15.800Z,8.67
2019-01-20T22:47:29.390Z,7.90
2019-01-20T22:49:38.792Z,10.97
2019-01-20T22:51:44.867Z,9.83
2019-01-20T22:53:50.578Z,8.50
2019-01-20T22:55:56.608Z,8.70
2019-01-20T22:58:03.159Z,8.70
2019-01-20T23:00:21.272Z,9.20
2019-01-20T23:02:31.463Z,8.43
2019-01-20T23:04:39.803Z,8.93
2019-01-20T23:06:45.675Z,7.73
2019-01-20T23:08:51.465Z,9.53
2019-01-20T23:10:57.687Z,9.10
2019-01-20T23:13:04.058Z,9.60
2019-01-20T23:15:10.170Z,9.63
2019-01-20T23:17:16.791Z,8.20
2019-01-20T23:19:24.252Z,9.60
2019-01-20T23:21:35.486Z,10.07
2019-01-20T23:23:41.209Z,8.57
2019-01-20T23:25:49.585Z,9.17
2019-01-20T23:27:55.473Z,8.63
2019-01-20T23:30:06.564Z,8.07
2019-01-20T23:32:12.742Z,8.80
2019-01-20T23:34:19.100Z,8.63
2019-01-20T23:36:26.704Z,8.90
2019-01-20T23:38:31.758Z,8.10
2019-01-20T23:40:37.587Z,7.97
2019-01-20T23:42:48.649Z,8.77
2019-01-20T23:44:54.180Z,9.40
2019-01-20T23:47:00.008Z,8.30
2019-01-20T23:49:04.470Z,8.40
2019-01-20T23:51:09.892Z,9.57
2019-01-20T23:53:16.023Z,8.50
2019-01-20T23:55:21.160Z,8.07
2019-01-20T23:57:26.856Z,7.40
2019-01-20T23:59:32.498Z,9.80
